Lahmansville, West Virginia
Current Conditions -  °F | °C
As of 9:15 AM on Tuesday 27 Jan 2015 (Local Time) from KW99 Reporting Station
Overcast Overcast  
Wind Chill: 18°   Ceiling: 9500
Heat Index: 18°   Visibility: 10mi
Dew Point: 15°   Wind: 0mph
Humidity: 88%   Direction: NA
Pressure: 29.89"   Gusts: NA
Location:  39.13°N, 79.08°W
Report Text: KW99 271415Z AUTO 00000KT 10SM OVC095 M08/M10 A2989 RMK AO2 T10791096
Loading
Personal Weather Stations






























Interactive Weather Map New forecast layout! Learn more

10-Day Weather Forecast

Advertisements
Track Severe Weather on mobile